Ridgely, Tennessee
Current Conditions -  °F | °C
As of 2:55 PM on Thursday 20 Nov 2014 (Local Time) from KDYR Reporting Station
Clear Clear  
Wind Chill: 46°   Ceiling: Unl
Heat Index: 46°   Visibility: 10mi
Dew Point: 18°   Wind: 3mph
Humidity: 32%   Direction: 50°NE
Pressure: 30.23"   Gusts: NA
Location:  36.26°N, 89.49°W
Report Text: KDYR 202055Z 05003KT 10SM CLR 08/M08 A3023 RMK AO1 57017
Loading
Personal Weather Stations






























Interactive Weather Map New forecast layout! Learn more

10-Day Weather Forecast

Advertisements
Track Severe Weather on mobile